KCXP

Carson Airport

Carson City, Nevada, USA
KCXP 210542Z 2106/2206 VRB04KT P6SM FEW080 SCT220 FM212000 27010G18KT P6SM VCTS FEW050 SCT080CB BKN140 FM220400 VRB04KT P6SM -SHRA SCT050 BKN120 BKN200
Issued Valid From Valid To
Jul-21 @ 05:42 UTC
(4 hours ago)
Jul-21 @ 06:00 UTC
(4 hours ago)
Jul-22 @ 06:00 UTC
(in 20 hours)
Jul-21 @ 06:00 to Jul-21 @ 20:00
KCXP 210542Z 2106/2206 VRB04KT P6SM FEW080 SCT220
Wind Visibility Clouds
Variable at 4 knots Greater than 6 miles
  • Few at 8,000' AGL
  • Scattered at 22,000' AGL
From Jul-21 @ 20:00 to Jul-22 @ 04:00
FM212000 27010G18KT P6SM VCTS FEW050 SCT080CB BKN140
Wind Visibility Clouds Conditions
270° at 10 knots
 Gusting to 18 knots
Greater than 6 miles
  • Few at 5,000' AGL
  • Scattered at 8,000' AGL
  • Broken at 14,000' AGL
  • Area Thunderstorm
From Jul-22 @ 04:00 to Jul-22 @ 06:00
FM220400 VRB04KT P6SM -SHRA SCT050 BKN120 BKN200
Wind Visibility Clouds Conditions
Variable at 4 knots Greater than 6 miles
  • Scattered at 5,000' AGL
  • Broken at 12,000' AGL
  • Broken at 20,000' AGL
  • Light Rain
KCXP 210542Z 2106/2206 VRB04KT P6SM FEW080 SCT220 FM212000 27010G18KT P6SM VCTS FEW050 SCT080CB BKN140 FM220400 VRB04KT P6SM -SHRA SCT050 BKN120 BKN200
Issued Jul-21 @ 05:42 UTC
(4 hours ago)
Valid From Jul-21 @ 06:00 UTC
(4 hours ago)
Valid To Jul-22 @ 06:00 UTC
(in 20 hours)
Jul-21 @ 06:00 - Jul-21 @ 20:00
Wind Visibility
Variable at 4 knots Greater than 6 miles
Clouds
  • Few at 8,000' AGL
  • Scattered at 22,000' AGL
From Jul-21 @ 20:00 - Jul-22 @ 04:00
Wind Visibility
270° at 10 knots
 Gusting to 18 knots
Greater than 6 miles
Clouds
  • Few at 5,000' AGL
  • Scattered at 8,000' AGL
  • Broken at 14,000' AGL
Conditions
  • Area Thunderstorm
From Jul-22 @ 04:00 - Jul-22 @ 06:00
Wind Visibility
Variable at 4 knots Greater than 6 miles
Clouds
  • Scattered at 5,000' AGL
  • Broken at 12,000' AGL
  • Broken at 20,000' AGL
Conditions
  • Light Rain